createdAt,value
2023-02-22T00:39:15.384Z,1.23
2023-02-22T00:41:52.473Z,1.50
2023-02-22T00:45:36.247Z,0.93
2023-02-22T00:50:32.052Z,0.88
2023-02-22T00:53:37.984Z,1.55
2023-02-22T00:56:37.826Z,1.30
2023-02-22T00:59:11.195Z,0.80
2023-02-22T01:05:28.501Z,0.80
2023-02-22T01:11:56.397Z,0.82
2023-02-22T01:15:02.525Z,1.17
2023-02-22T01:33:03.835Z,1.88
2023-02-22T01:35:44.201Z,1.25
2023-02-22T01:44:39.794Z,0.68
2023-02-22T01:47:38.405Z,1.95
2023-02-22T01:50:11.616Z,0.80
2023-02-22T01:52:51.925Z,0.57
2023-02-22T01:55:25.813Z,0.85
2023-02-22T01:58:18.319Z,1.05
2023-02-22T02:00:52.951Z,0.90
2023-02-22T03:28:15.690Z,0.63
2023-02-22T03:39:08.446Z,0.90
2023-02-22T03:49:28.012Z,0.80
2023-02-22T03:56:05.919Z,0.75
2023-02-22T04:02:09.374Z,1.02
2023-02-22T04:04:43.890Z,0.52
2023-02-22T04:07:28.811Z,0.80
2023-02-22T04:10:52.839Z,0.80
2023-02-22T04:13:29.398Z,0.95
2023-02-22T04:15:57.021Z,0.90
2023-02-22T04:19:00.203Z,1.10
2023-02-22T04:21:27.922Z,0.65
2023-02-22T04:23:57.859Z,1.20
2023-02-22T04:29:29.086Z,1.20
2023-02-22T04:32:05.913Z,0.95
2023-02-22T04:37:30.827Z,0.93
2023-02-22T04:40:16.750Z,1.75
2023-02-22T04:42:43.633Z,2.10
2023-02-22T04:45:13.825Z,1.95
2023-02-22T04:47:41.101Z,1.60
2023-02-22T04:50:12.322Z,1.77
2023-02-22T04:52:42.714Z,3.22
2023-02-22T04:55:11.216Z,1.52
2023-02-22T04:57:38.264Z,1.50
2023-02-22T05:00:06.926Z,3.53
2023-02-22T05:02:39.482Z,1.63
2023-02-22T05:05:06.828Z,2.20
2023-02-22T05:07:39.921Z,2.30
2023-02-22T05:10:07.031Z,1.38
2023-02-22T05:12:42.926Z,2.27
2023-02-22T05:15:28.486Z,2.60
2023-02-22T05:17:55.621Z,2.03
2023-02-22T05:20:30.954Z,2.85
2023-02-22T05:27:02.986Z,2.83
2023-02-22T05:33:21.339Z,1.92
2023-02-22T05:35:58.823Z,1.70
2023-02-22T05:39:40.680Z,1.70
2023-02-22T05:46:10.385Z,3.55
2023-02-22T05:49:10.492Z,2.30
2023-02-22T05:52:26.102Z,2.22
2023-02-22T05:54:53.601Z,2.30
2023-02-22T05:57:25.977Z,3.85
2023-02-22T06:06:36.794Z,3.80
2023-02-22T06:09:06.922Z,4.90
2023-02-22T06:13:02.976Z,3.58
2023-02-22T06:15:33.857Z,3.70
2023-02-22T06:18:04.004Z,3.63
2023-02-22T06:20:37.187Z,5.18
2023-02-22T06:23:10.194Z,6.07
2023-02-22T06:25:49.619Z,5.15
2023-02-22T06:28:42.801Z,4.25
2023-02-22T06:31:10.264Z,4.50
2023-02-22T06:33:37.484Z,5.35
2023-02-22T06:36:15.268Z,5.57
2023-02-22T06:38:42.140Z,5.65
2023-02-22T06:41:27.825Z,4.50
2023-02-22T06:44:01.169Z,4.68
2023-02-22T06:46:28.065Z,5.30
2023-02-22T06:48:55.657Z,4.38
2023-02-22T06:51:23.270Z,5.78
2023-02-22T06:53:50.186Z,6.55
2023-02-22T06:56:17.184Z,6.32
2023-02-22T06:59:10.227Z,6.25
2023-02-22T07:02:00.130Z,6.68
2023-02-22T07:04:26.901Z,5.43
2023-02-22T07:06:57.373Z,4.47
2023-02-22T07:09:24.145Z,4.88
2023-02-22T07:11:51.759Z,4.47
2023-02-22T07:14:31.957Z,6.63
2023-02-22T07:20:08.692Z,3.17
2023-02-22T07:25:38.998Z,2.00
2023-02-22T07:28:18.135Z,1.65
2023-02-22T07:30:48.473Z,1.77
2023-02-22T07:33:21.497Z,3.17
2023-02-22T07:35:50.904Z,1.98
2023-02-22T07:38:26.409Z,1.38
2023-02-22T07:41:07.969Z,1.27
2023-02-22T07:44:13.377Z,1.27
2023-02-22T07:46:40.318Z,0.95
2023-02-22T07:49:10.449Z,1.00
2023-02-22T07:51:38.654Z,1.30
2023-02-22T07:54:07.652Z,1.00
2023-02-22T07:56:37.685Z,1.27
2023-02-22T07:59:12.868Z,1.70
2023-02-22T08:01:40.141Z,1.50
2023-02-22T08:04:28.683Z,1.48
2023-02-22T08:06:58.258Z,0.70
2023-02-22T08:09:32.869Z,1.25
2023-02-22T08:11:59.700Z,1.00
2023-02-22T08:14:26.497Z,1.13
2023-02-22T08:16:56.068Z,1.52
2023-02-22T08:19:23.077Z,0.85
2023-02-22T08:21:58.982Z,1.00
2023-02-22T08:24:25.909Z,1.08
2023-02-22T08:26:56.737Z,0.85
2023-02-22T08:29:35.881Z,1.02
2023-02-22T08:32:11.090Z,0.75
2023-02-22T08:34:41.772Z,1.00
2023-02-22T08:45:07.279Z,1.20
2023-02-22T08:47:57.778Z,2.30
2023-02-22T08:50:47.129Z,2.33
2023-02-22T08:53:24.474Z,1.30
2023-02-22T08:58:55.043Z,1.48
2023-02-22T09:01:37.076Z,1.10
2023-02-22T09:04:05.691Z,1.63
2023-02-22T09:07:00.212Z,0.98
2023-02-22T09:09:32.354Z,4.03
2023-02-22T09:12:10.825Z,1.50
2023-02-22T09:14:37.909Z,2.05
2023-02-22T09:17:17.746Z,2.67
2023-02-22T09:19:48.795Z,1.75
2023-02-22T09:22:18.104Z,1.80
2023-02-22T09:24:51.390Z,1.30
2023-02-22T09:27:22.576Z,2.28
2023-02-22T09:29:53.268Z,1.92
2023-02-22T09:32:20.780Z,1.10
2023-02-22T09:34:56.541Z,1.33
2023-02-22T09:37:24.159Z,0.95
2023-02-22T09:39:54.312Z,1.42
2023-02-22T09:42:36.749Z,1.45
2023-02-22T09:45:18.824Z,1.13
2023-02-22T09:47:57.652Z,1.10
2023-02-22T09:50:59.185Z,0.88
2023-02-22T09:53:51.254Z,1.08
2023-02-22T09:56:31.024Z,1.08
2023-02-22T09:59:07.531Z,1.10
2023-02-22T10:01:51.097Z,1.02
2023-02-22T10:04:56.171Z,1.10
2023-02-22T10:07:57.811Z,1.75
2023-02-22T10:11:08.469Z,0.77
2023-02-22T10:13:58.150Z,0.80
2023-02-22T10:16:40.648Z,1.30
2023-02-22T10:19:46.882Z,1.35
2023-02-22T10:22:37.626Z,1.00
2023-02-22T10:25:13.960Z,1.05
2023-02-22T10:28:01.073Z,0.93
2023-02-22T10:30:36.999Z,1.10
2023-02-22T10:33:26.826Z,0.98
2023-02-22T10:35:56.677Z,1.30
2023-02-22T10:38:24.783Z,0.70
2023-02-22T10:41:24.290Z,1.20
2023-02-22T10:44:00.592Z,1.20
2023-02-22T10:46:34.562Z,2.05
2023-02-22T10:49:10.150Z,1.00
2023-02-22T10:51:59.659Z,1.55
2023-02-22T10:54:34.003Z,1.98
2023-02-22T10:57:09.999Z,2.00
2023-02-22T10:59:47.868Z,0.95
2023-02-22T11:02:33.368Z,2.55
2023-02-22T11:05:04.774Z,2.58
2023-02-22T11:07:41.083Z,3.25
2023-02-22T11:10:10.084Z,1.90
2023-02-22T11:12:48.745Z,1.52
2023-02-22T11:15:34.263Z,2.75
2023-02-22T11:18:07.513Z,2.00
2023-02-22T11:20:43.303Z,1.55
2023-02-22T11:23:10.934Z,3.08
2023-02-22T11:25:43.927Z,1.80
2023-02-22T11:28:31.366Z,3.50
2023-02-22T11:33:29.717Z,1.58
2023-02-22T11:39:01.777Z,2.08
2023-02-22T11:41:35.918Z,1.33
2023-02-22T11:44:28.781Z,1.83
2023-02-22T11:47:16.153Z,0.98
2023-02-22T11:49:47.635Z,1.15
2023-02-22T11:52:28.861Z,3.10
2023-02-22T11:55:36.329Z,4.22
2023-02-22T11:58:33.533Z,1.75
2023-02-22T12:01:33.816Z,1.58
2023-02-22T12:04:29.782Z,1.60
2023-02-22T12:07:20.667Z,3.90
2023-02-22T12:10:15.176Z,1.80
2023-02-22T12:13:02.107Z,1.73
2023-02-22T12:15:42.774Z,2.83
2023-02-22T12:18:26.226Z,1.60
2023-02-22T12:25:38.230Z,2.10
2023-02-22T12:28:24.262Z,1.58
2023-02-22T12:31:17.285Z,0.80
2023-02-22T12:34:00.782Z,1.17
2023-02-22T12:36:40.537Z,0.85
2023-02-22T12:39:52.327Z,1.13
2023-02-22T12:43:03.954Z,0.90
2023-02-22T12:45:47.878Z,0.70
2023-02-22T12:48:36.480Z,0.82
2023-02-22T12:51:31.581Z,1.13
2023-02-22T12:54:22.581Z,1.00
2023-02-22T12:56:59.193Z,1.17
2023-02-22T13:03:18.373Z,1.70
2023-02-22T13:05:55.620Z,5.05
2023-02-22T13:08:52.703Z,3.92
2023-02-22T13:11:57.362Z,1.65
2023-02-22T13:14:59.257Z,1.13
2023-02-22T13:17:56.020Z,0.88
2023-02-22T13:20:53.857Z,2.25
2023-02-22T13:23:26.991Z,1.27
2023-02-22T13:25:58.252Z,2.00
2023-02-22T13:29:27.635Z,2.35
2023-02-22T13:32:55.745Z,1.25
2023-02-22T13:35:35.451Z,1.85
2023-02-22T13:39:14.817Z,1.95
2023-02-22T13:41:56.369Z,1.60
2023-02-22T13:45:09.696Z,1.10
2023-02-22T13:49:20.491Z,1.27
2023-02-22T13:51:47.351Z,0.60
2023-02-22T13:54:53.851Z,1.05
2023-02-22T14:00:54.329Z,1.55
2023-02-22T14:10:37.942Z,0.82
2023-02-22T14:21:25.520Z,0.80
2023-02-22T14:24:35.799Z,1.40
2023-02-22T14:30:02.007Z,0.90
2023-02-22T14:35:58.257Z,1.03
2023-02-22T14:38:31.736Z,0.95
2023-02-22T14:41:42.445Z,1.35
2023-02-22T14:44:43.430Z,1.25
2023-02-22T14:48:42.585Z,0.93
2023-02-22T14:51:58.805Z,0.60
2023-02-22T14:54:46.718Z,0.80
2023-02-22T14:57:27.416Z,0.88
2023-02-22T15:00:31.560Z,0.70
2023-02-22T15:03:02.058Z,0.90
2023-02-22T15:05:41.580Z,0.85
2023-02-22T15:08:09.601Z,1.13
2023-02-22T15:10:45.878Z,0.75
2023-02-22T15:13:33.225Z,0.70
2023-02-22T15:16:08.245Z,1.20
2023-02-22T15:18:43.651Z,1.02
2023-02-22T15:24:08.409Z,1.02
2023-02-22T15:27:01.123Z,0.95
2023-02-22T15:29:44.917Z,0.85
2023-02-22T15:32:36.929Z,1.00
2023-02-22T15:35:43.942Z,0.85
2023-02-22T15:38:14.624Z,1.02
2023-02-22T15:40:46.282Z,0.77
2023-02-22T15:43:24.339Z,0.88
2023-02-22T15:45:52.468Z,1.08
2023-02-22T15:48:26.115Z,1.35
2023-02-22T15:51:14.099Z,0.98
2023-02-22T15:54:02.392Z,1.02
2023-02-22T15:59:20.968Z,1.20
2023-02-22T16:01:51.716Z,1.38
2023-02-22T16:04:28.369Z,1.02
2023-02-22T16:07:07.188Z,1.30
2023-02-22T16:09:35.396Z,1.40
2023-02-22T16:12:49.442Z,1.67
2023-02-22T16:15:39.246Z,1.00
2023-02-22T16:18:48.212Z,1.20
2023-02-22T16:21:27.624Z,1.17
2023-02-22T16:24:13.894Z,0.98
2023-02-22T16:27:34.834Z,0.93
2023-02-22T16:30:46.108Z,1.25
2023-02-22T16:33:22.678Z,6.63
2023-02-22T16:35:57.509Z,4.30
2023-02-22T16:38:36.251Z,1.98
2023-02-22T16:45:50.874Z,2.47
2023-02-22T17:04:00.907Z,1.75
2023-02-22T17:11:22.561Z,2.03
2023-02-22T17:24:18.984Z,1.98
2023-02-22T17:27:44.673Z,2.35
2023-02-22T17:30:14.108Z,7.90
2023-02-22T17:33:21.152Z,9.98
2023-02-22T17:36:05.751Z,7.00
2023-02-22T17:50:33.629Z,2.17
2023-02-22T18:05:07.521Z,2.10
2023-02-22T18:07:35.084Z,2.03
2023-02-22T18:10:46.273Z,2.08
2023-02-22T18:13:19.362Z,2.08
2023-02-22T18:15:49.528Z,3.00
2023-02-22T18:18:23.347Z,2.63
2023-02-22T18:23:47.768Z,2.80
2023-02-22T18:26:30.712Z,2.20
2023-02-22T18:29:13.106Z,2.75
2023-02-22T18:31:47.837Z,2.05
2023-02-22T18:34:18.040Z,1.63
2023-02-22T18:36:45.278Z,1.65
2023-02-22T18:40:08.787Z,2.20
2023-02-22T18:47:33.652Z,2.60
2023-02-22T18:50:00.857Z,2.20
2023-02-22T18:52:55.280Z,2.10
2023-02-22T18:58:54.371Z,2.33
2023-02-22T19:14:39.311Z,2.17
2023-02-22T19:23:34.928Z,2.25
2023-02-22T19:26:10.045Z,3.00
2023-02-22T19:28:37.817Z,3.13
2023-02-22T19:31:20.938Z,2.10
2023-02-22T19:33:52.884Z,2.17
2023-02-22T19:36:23.278Z,3.00
2023-02-22T19:46:15.171Z,2.08
2023-02-22T19:52:25.424Z,1.63
2023-02-22T19:58:26.870Z,1.80
2023-02-22T20:05:41.775Z,2.25
2023-02-22T20:08:39.577Z,2.17
2023-02-22T20:18:35.162Z,1.58
2023-02-22T20:22:09.949Z,1.95
2023-02-22T20:26:05.067Z,2.08
2023-02-22T21:15:56.150Z,1.42
2023-02-22T21:34:07.938Z,2.47
2023-02-22T21:36:42.094Z,2.10
2023-02-22T21:39:39.454Z,1.70
2023-02-22T21:42:36.242Z,2.22
2023-02-22T21:50:15.302Z,2.97
2023-02-22T22:03:35.679Z,1.58
2023-02-22T22:18:00.511Z,1.85
2023-02-22T22:51:49.649Z,1.45
2023-02-22T22:54:22.995Z,1.30
2023-02-22T22:57:09.676Z,1.80
2023-02-22T23:06:36.314Z,2.25
2023-02-22T23:09:26.420Z,1.60
2023-02-22T23:12:31.192Z,1.55
2023-02-22T23:15:21.337Z,1.90
2023-02-22T23:17:48.565Z,1.27
2023-02-22T23:20:39.633Z,1.27
2023-02-22T23:26:50.424Z,1.40
2023-02-22T23:29:28.712Z,1.30
2023-02-22T23:31:56.404Z,1.45
2023-02-22T23:38:26.709Z,1.48
2023-02-22T23:41:15.100Z,1.00
